createdAt,value
2022-10-25T00:01:51.085Z,1.20
2022-10-25T00:04:53.728Z,0.70
2022-10-25T00:07:56.297Z,1.33
2022-10-25T00:11:00.270Z,0.70
2022-10-25T00:14:05.732Z,0.73
2022-10-25T00:17:08.483Z,0.70
2022-10-25T00:20:12.661Z,0.70
2022-10-25T00:23:15.913Z,0.97
2022-10-25T00:26:20.339Z,0.80
2022-10-25T00:35:29.148Z,1.10
2022-10-25T00:38:31.944Z,1.02
2022-10-25T00:41:36.006Z,1.00
2022-10-25T00:44:54.005Z,0.80
2022-10-25T00:47:59.303Z,0.80
2022-10-25T00:51:02.572Z,1.10
2022-10-25T00:54:05.750Z,1.15
2022-10-25T00:57:13.796Z,1.38
2022-10-25T01:00:16.830Z,1.07
2022-10-25T01:03:22.222Z,1.17
2022-10-25T01:06:29.493Z,1.00
2022-10-25T01:09:33.567Z,1.60
2022-10-25T01:12:37.520Z,1.00
2022-10-25T01:15:48.018Z,1.70
2022-10-25T01:18:57.105Z,0.80
2022-10-25T01:22:03.392Z,1.10
2022-10-25T01:25:29.006Z,0.90
2022-10-25T01:28:43.388Z,1.07
2022-10-25T01:31:50.017Z,0.87
2022-10-25T01:34:58.198Z,0.80
2022-10-25T01:38:17.115Z,0.90
2022-10-25T01:41:26.132Z,1.17
2022-10-25T01:47:45.318Z,1.23
2022-10-25T01:50:49.020Z,0.80
2022-10-25T01:53:52.885Z,1.55
2022-10-25T01:57:04.850Z,1.30
2022-10-25T02:00:10.777Z,1.00
2022-10-25T02:03:20.006Z,1.27
2022-10-25T02:06:28.761Z,1.47
2022-10-25T02:09:34.833Z,1.83
2022-10-25T02:12:44.381Z,1.50
2022-10-25T02:15:55.394Z,1.63
2022-10-25T02:19:00.977Z,1.67
2022-10-25T02:22:04.692Z,2.07
2022-10-25T02:25:08.947Z,2.00
2022-10-25T02:28:13.327Z,1.63
2022-10-25T02:31:18.993Z,1.77
2022-10-25T02:34:23.179Z,1.40
2022-10-25T02:37:25.893Z,1.60
2022-10-25T02:40:28.809Z,1.60
2022-10-25T02:43:31.385Z,1.42
2022-10-25T02:46:33.991Z,1.40
2022-10-25T02:49:38.342Z,1.50
2022-10-25T02:52:40.954Z,1.70
2022-10-25T02:55:44.519Z,1.40
2022-10-25T03:01:50.222Z,1.37
2022-10-25T03:04:54.301Z,1.88
2022-10-25T03:07:56.928Z,1.67
2022-10-25T03:10:59.629Z,1.37
2022-10-25T03:14:02.317Z,1.33
2022-10-25T03:17:06.372Z,1.30
2022-10-25T03:20:11.657Z,1.93
2022-10-25T03:23:14.605Z,1.97
2022-10-25T03:26:17.704Z,1.20
2022-10-25T03:29:20.805Z,1.50
2022-10-25T03:32:23.464Z,1.38
2022-10-25T03:35:27.736Z,1.30
2022-10-25T03:38:30.409Z,1.13
2022-10-25T03:41:33.001Z,1.20
2022-10-25T03:44:36.097Z,1.50
2022-10-25T03:47:38.900Z,1.50
2022-10-25T03:50:43.228Z,1.25
2022-10-25T03:53:45.884Z,1.57
2022-10-25T03:56:48.559Z,1.25
2022-10-25T03:59:51.224Z,1.40
2022-10-25T04:02:59.421Z,1.20
2022-10-25T04:06:06.186Z,1.73
2022-10-25T04:09:08.903Z,1.37
2022-10-25T04:12:11.508Z,1.60
2022-10-25T04:15:14.773Z,1.20
2022-10-25T04:18:17.454Z,1.85
2022-10-25T04:21:21.547Z,1.20
2022-10-25T04:24:24.322Z,1.40
2022-10-25T04:27:27.330Z,1.80
2022-10-25T04:30:31.953Z,2.00
2022-10-25T04:33:36.425Z,1.77
2022-10-25T04:36:40.694Z,2.13
2022-10-25T04:39:43.378Z,1.87
2022-10-25T04:42:46.318Z,2.15
2022-10-25T04:45:49.430Z,2.20
2022-10-25T04:48:52.136Z,1.55
2022-10-25T04:51:56.564Z,1.83
2022-10-25T04:54:59.423Z,3.00
2022-10-25T04:58:02.136Z,1.90
2022-10-25T05:01:07.333Z,1.90
2022-10-25T05:04:10.154Z,1.30
2022-10-25T05:07:14.335Z,1.52
2022-10-25T05:10:17.142Z,1.80
2022-10-25T05:13:19.843Z,2.00
2022-10-25T05:16:24.906Z,2.17
2022-10-25T05:19:27.572Z,2.57
2022-10-25T05:22:32.248Z,2.50
2022-10-25T05:25:34.819Z,2.37
2022-10-25T05:28:38.838Z,2.37
2022-10-25T05:31:42.567Z,3.03
2022-10-25T05:34:45.315Z,3.10
2022-10-25T05:37:49.450Z,3.05
2022-10-25T05:40:55.856Z,3.10
2022-10-25T05:43:58.856Z,3.43
2022-10-25T05:47:01.757Z,3.00
2022-10-25T05:50:04.481Z,3.72
2022-10-25T05:53:08.642Z,4.35
2022-10-25T05:56:12.349Z,3.67
2022-10-25T05:59:18.699Z,3.80
2022-10-25T06:02:21.506Z,3.97
2022-10-25T06:05:24.244Z,3.85
2022-10-25T06:08:28.353Z,3.20
2022-10-25T06:11:31.633Z,3.07
2022-10-25T06:14:34.398Z,2.05
2022-10-25T06:17:37.150Z,1.80
2022-10-25T06:23:44.371Z,1.93
2022-10-25T06:26:47.139Z,1.57
2022-10-25T06:29:49.954Z,1.75
2022-10-25T06:32:52.564Z,1.10
2022-10-25T06:35:56.420Z,1.30
2022-10-25T06:39:05.809Z,1.70
2022-10-25T06:42:09.517Z,1.60
2022-10-25T06:45:12.304Z,2.15
2022-10-25T06:48:14.983Z,2.33
2022-10-25T06:51:17.749Z,2.87
2022-10-25T06:54:21.693Z,1.88
2022-10-25T06:57:24.482Z,2.80
2022-10-25T07:00:27.293Z,2.10
2022-10-25T07:03:34.952Z,1.52
2022-10-25T07:06:38.003Z,1.93
2022-10-25T07:09:42.103Z,1.85
2022-10-25T07:12:44.972Z,1.20
2022-10-25T07:15:47.862Z,2.00
2022-10-25T07:18:50.624Z,1.30
2022-10-25T07:21:53.241Z,1.58
2022-10-25T07:24:57.218Z,1.33
2022-10-25T07:27:59.797Z,1.03
2022-10-25T07:31:02.894Z,1.80
2022-10-25T07:34:06.582Z,2.45
2022-10-25T07:37:09.482Z,1.80
2022-10-25T07:40:14.166Z,4.18
2022-10-25T07:43:16.804Z,1.40
2022-10-25T07:46:19.589Z,2.33
2022-10-25T07:49:22.328Z,1.25
2022-10-25T07:52:25.275Z,1.58
2022-10-25T07:55:29.261Z,1.58
2022-10-25T07:58:32.045Z,1.17
2022-10-25T08:01:34.720Z,0.70
2022-10-25T08:04:37.433Z,1.25
2022-10-25T08:07:40.060Z,1.08
2022-10-25T08:10:44.974Z,1.20
2022-10-25T08:13:49.931Z,1.17
2022-10-25T08:16:52.560Z,1.00
2022-10-25T08:19:56.315Z,1.15
2022-10-25T08:22:59.166Z,0.63
2022-10-25T08:26:03.601Z,1.05
2022-10-25T08:29:06.303Z,0.70
2022-10-25T08:32:08.917Z,1.02
2022-10-25T08:35:11.504Z,0.80
2022-10-25T08:38:14.081Z,1.03
2022-10-25T08:41:20.362Z,0.60
2022-10-25T08:44:33.182Z,0.90
2022-10-25T08:47:38.204Z,1.10
2022-10-25T08:50:43.850Z,0.80
2022-10-25T08:53:48.916Z,1.20
2022-10-25T08:57:14.578Z,0.93
2022-10-25T09:00:21.041Z,0.90
2022-10-25T09:03:25.578Z,0.70
2022-10-25T09:06:35.913Z,0.80
2022-10-25T09:09:43.633Z,1.03
2022-10-25T09:12:53.577Z,1.57
2022-10-25T09:16:02.273Z,1.10
2022-10-25T09:19:09.686Z,1.27
2022-10-25T09:22:15.467Z,0.77
2022-10-25T09:25:22.885Z,0.80
2022-10-25T09:28:35.689Z,1.00
2022-10-25T09:31:40.757Z,0.77
2022-10-25T09:34:43.561Z,0.90
2022-10-25T09:37:50.018Z,0.80
2022-10-25T09:41:02.852Z,0.77
2022-10-25T09:44:12.298Z,1.37
2022-10-25T09:47:22.299Z,0.90
2022-10-25T09:50:27.482Z,0.60
2022-10-25T09:53:32.575Z,1.40
2022-10-25T09:56:35.195Z,1.00
2022-10-25T09:59:39.313Z,0.65
2022-10-25T10:02:42.509Z,0.60
2022-10-25T10:05:48.722Z,0.80
2022-10-25T10:08:52.949Z,0.80
2022-10-25T10:11:55.651Z,0.87
2022-10-25T10:15:02.615Z,0.50
2022-10-25T10:18:25.268Z,0.43
2022-10-25T10:21:28.057Z,0.77
2022-10-25T10:24:32.059Z,0.93
2022-10-25T10:27:35.247Z,0.40
2022-10-25T10:30:39.906Z,0.85
2022-10-25T10:33:42.598Z,0.70
2022-10-25T10:36:45.862Z,1.00
2022-10-25T10:39:52.781Z,0.88
2022-10-25T10:42:58.327Z,1.20
2022-10-25T10:46:09.827Z,1.13
2022-10-25T10:49:12.711Z,0.60
2022-10-25T10:52:29.151Z,0.85
2022-10-25T10:55:33.379Z,0.80
2022-10-25T10:58:38.876Z,0.80
2022-10-25T11:01:43.221Z,0.57
2022-10-25T11:04:49.939Z,0.80
2022-10-25T11:07:57.379Z,1.13
2022-10-25T11:11:14.335Z,0.90
2022-10-25T11:14:19.982Z,0.63
2022-10-25T11:17:27.145Z,1.00
2022-10-25T11:20:33.177Z,0.90
2022-10-25T11:23:39.630Z,0.60
2022-10-25T11:26:51.773Z,0.60
2022-10-25T11:30:03.768Z,2.30
2022-10-25T11:33:28.538Z,1.70
2022-10-25T11:36:51.591Z,1.73
2022-10-25T11:40:01.885Z,1.95
2022-10-25T11:43:17.319Z,0.50
2022-10-25T11:46:25.201Z,0.73
2022-10-25T11:49:36.897Z,0.63
2022-10-25T11:52:59.566Z,0.87
2022-10-25T11:56:08.399Z,1.20
2022-10-25T11:59:17.249Z,0.83
2022-10-25T12:02:42.528Z,0.60
2022-10-25T12:05:50.873Z,1.00
2022-10-25T12:09:03.411Z,0.50
2022-10-25T12:12:08.019Z,0.98
2022-10-25T12:15:15.441Z,0.60
2022-10-25T12:18:25.360Z,0.50
2022-10-25T12:21:36.757Z,0.60
2022-10-25T12:24:42.683Z,0.60
2022-10-25T12:27:49.521Z,0.57
2022-10-25T12:30:57.414Z,0.60
2022-10-25T12:34:06.610Z,0.60
2022-10-25T12:37:16.218Z,0.80
2022-10-25T12:40:21.717Z,1.00
2022-10-25T12:43:28.415Z,0.67
2022-10-25T12:46:52.666Z,0.80
2022-10-25T12:50:11.978Z,0.93
2022-10-25T12:53:50.298Z,0.90
2022-10-25T12:57:00.920Z,0.70
2022-10-25T13:00:11.464Z,1.20
2022-10-25T13:03:35.335Z,1.33
2022-10-25T13:06:39.167Z,0.73
2022-10-25T13:09:43.535Z,1.40
2022-10-25T13:13:00.076Z,0.80
2022-10-25T13:16:04.573Z,1.00
2022-10-25T13:19:42.781Z,0.77
2022-10-25T13:22:47.866Z,0.80
2022-10-25T13:26:08.212Z,0.95
2022-10-25T13:29:45.524Z,1.02
2022-10-25T13:33:28.978Z,0.90
2022-10-25T13:36:47.960Z,0.95
2022-10-25T13:39:54.189Z,1.13
2022-10-25T13:43:06.333Z,1.00
2022-10-25T13:46:11.266Z,0.80
2022-10-25T13:49:31.684Z,0.60
2022-10-25T13:52:35.216Z,1.52
2022-10-25T13:55:39.647Z,1.10
2022-10-25T13:58:46.946Z,1.10
2022-10-25T14:01:54.867Z,0.90
2022-10-25T14:04:57.616Z,1.35
2022-10-25T14:08:12.991Z,0.98
2022-10-25T14:11:19.329Z,0.80
2022-10-25T14:14:28.982Z,1.05
2022-10-25T14:17:35.356Z,1.30
2022-10-25T14:20:38.760Z,0.90
2022-10-25T14:23:41.872Z,1.38
2022-10-25T14:26:56.115Z,1.50
2022-10-25T14:30:25.538Z,1.30
2022-10-25T14:33:30.519Z,1.40
2022-10-25T14:36:34.154Z,1.00
2022-10-25T14:39:36.996Z,1.30
2022-10-25T14:42:39.675Z,1.58
2022-10-25T14:45:56.238Z,1.40
2022-10-25T14:49:00.087Z,1.23
2022-10-25T14:52:04.381Z,1.40
2022-10-25T14:55:08.111Z,1.37
2022-10-25T14:58:12.634Z,1.20
2022-10-25T15:01:20.398Z,1.73
2022-10-25T15:04:28.026Z,1.40
2022-10-25T15:07:32.380Z,1.20
2022-10-25T15:10:41.833Z,1.10
2022-10-25T15:13:45.662Z,1.55
2022-10-25T15:16:51.914Z,1.00
2022-10-25T15:20:06.895Z,1.45
2022-10-25T15:23:16.711Z,3.80
2022-10-25T15:26:24.585Z,1.60
2022-10-25T15:29:31.996Z,1.87
2022-10-25T15:32:37.083Z,1.93
2022-10-25T15:35:48.253Z,1.17
2022-10-25T15:39:07.897Z,1.03
2022-10-25T15:42:15.325Z,1.40
2022-10-25T15:45:18.587Z,1.40
2022-10-25T15:48:24.225Z,1.45
2022-10-25T15:51:30.178Z,1.07
2022-10-25T15:54:34.682Z,1.33
2022-10-25T15:57:37.297Z,1.67
2022-10-25T16:00:40.159Z,1.77
2022-10-25T16:03:44.323Z,1.17
2022-10-25T16:06:47.500Z,1.30
2022-10-25T16:09:50.187Z,1.42
2022-10-25T16:12:58.568Z,1.70
2022-10-25T16:16:11.852Z,1.90
2022-10-25T16:19:31.486Z,1.50
2022-10-25T16:22:34.341Z,1.90
2022-10-25T16:25:36.962Z,1.48
2022-10-25T16:28:40.932Z,1.98
2022-10-25T16:31:44.543Z,2.70
2022-10-25T16:34:48.627Z,2.43
2022-10-25T16:37:51.470Z,1.90
2022-10-25T16:40:54.202Z,1.55
2022-10-25T16:43:57.379Z,1.52
2022-10-25T16:47:00.212Z,1.77
2022-10-25T16:50:04.354Z,2.28
2022-10-25T16:53:09.150Z,1.60
2022-10-25T16:56:12.102Z,1.83
2022-10-25T16:59:14.857Z,1.65
2022-10-25T17:02:18.998Z,1.55
2022-10-25T17:05:24.819Z,1.83
2022-10-25T17:08:27.506Z,1.93
2022-10-25T17:11:30.233Z,2.05
2022-10-25T17:14:32.987Z,2.38
2022-10-25T17:17:36.004Z,2.13
2022-10-25T17:20:40.116Z,1.70
2022-10-25T17:23:43.140Z,2.00
2022-10-25T17:26:45.724Z,2.13
2022-10-25T17:29:48.754Z,1.70
2022-10-25T17:32:51.619Z,2.15
2022-10-25T17:35:56.021Z,2.03
2022-10-25T17:38:58.700Z,1.90
2022-10-25T17:42:01.610Z,2.30
2022-10-25T17:45:04.348Z,2.08
2022-10-25T17:48:07.365Z,2.45
2022-10-25T17:51:12.760Z,2.55
2022-10-25T17:54:16.678Z,2.27
2022-10-25T17:57:19.397Z,2.20
2022-10-25T18:00:22.165Z,2.47
2022-10-25T18:03:24.905Z,3.08
2022-10-25T18:06:29.158Z,2.67
2022-10-25T18:09:31.969Z,2.40
2022-10-25T18:12:34.686Z,2.58
2022-10-25T18:15:38.627Z,2.35
2022-10-25T18:18:41.571Z,3.10
2022-10-25T18:21:45.660Z,3.08
2022-10-25T18:24:48.569Z,3.50
2022-10-25T18:27:51.536Z,4.43
2022-10-25T18:30:59.748Z,4.43
2022-10-25T18:34:04.404Z,5.17
2022-10-25T18:37:08.528Z,3.07
2022-10-25T18:40:11.994Z,2.53
2022-10-25T18:43:14.872Z,2.95
2022-10-25T18:46:17.875Z,4.10
2022-10-25T18:49:20.689Z,1.95
2022-10-25T18:52:24.821Z,4.25
2022-10-25T18:55:28.331Z,3.30
2022-10-25T19:01:34.075Z,3.93
2022-10-25T19:04:37.705Z,4.53
2022-10-25T19:10:44.210Z,4.80
2022-10-25T19:13:50.366Z,4.10
2022-10-25T19:16:54.086Z,4.03
2022-10-25T19:19:56.845Z,3.85
2022-10-25T19:23:00.821Z,3.17
2022-10-25T19:26:04.307Z,4.90
2022-10-25T19:29:06.984Z,4.25
2022-10-25T19:32:09.633Z,4.60
2022-10-25T19:35:12.389Z,4.75
2022-10-25T19:38:16.373Z,4.75
2022-10-25T19:41:20.829Z,4.37
2022-10-25T19:44:24.255Z,3.43
2022-10-25T19:47:26.976Z,4.60
2022-10-25T19:50:30.745Z,4.45
2022-10-25T19:53:34.830Z,3.43
2022-10-25T19:56:39.123Z,3.60
2022-10-25T19:59:43.083Z,3.10
2022-10-25T20:02:45.880Z,2.70
2022-10-25T20:05:48.712Z,3.30
2022-10-25T20:08:53.052Z,3.30
2022-10-25T20:11:55.682Z,2.27
2022-10-25T20:14:58.884Z,3.50
2022-10-25T20:18:02.246Z,2.60
2022-10-25T20:21:07.371Z,2.63
2022-10-25T20:24:11.558Z,2.60
2022-10-25T20:27:14.215Z,2.43
2022-10-25T20:30:17.408Z,2.92
2022-10-25T20:33:20.467Z,2.08
2022-10-25T20:36:23.563Z,2.03
2022-10-25T20:39:27.580Z,2.80
2022-10-25T20:42:30.267Z,3.20
2022-10-25T20:45:33.138Z,2.80
2022-10-25T20:48:36.263Z,2.75
2022-10-25T20:51:39.213Z,3.08
2022-10-25T20:54:43.316Z,2.42
2022-10-25T20:57:46.433Z,3.00
2022-10-25T21:00:50.032Z,2.05
2022-10-25T21:03:54.025Z,2.72
2022-10-25T21:06:56.828Z,2.97
2022-10-25T21:10:00.941Z,1.90
2022-10-25T21:13:03.779Z,2.77
2022-10-25T21:16:07.531Z,2.60
2022-10-25T21:19:10.257Z,3.20
2022-10-25T21:22:12.972Z,2.22
2022-10-25T21:25:17.271Z,2.15
2022-10-25T21:28:19.906Z,2.50
2022-10-25T21:31:22.612Z,2.47
2022-10-25T21:34:25.249Z,2.38
2022-10-25T21:37:27.998Z,2.50
2022-10-25T21:40:31.992Z,2.67
2022-10-25T21:43:34.765Z,2.50
2022-10-25T21:46:37.511Z,2.00
2022-10-25T21:49:40.399Z,2.55
2022-10-25T21:52:43.041Z,2.45
2022-10-25T21:55:47.021Z,3.15
2022-10-25T21:58:50.937Z,2.70
2022-10-25T22:01:53.606Z,3.27
2022-10-25T22:04:56.398Z,2.55
2022-10-25T22:07:59.172Z,2.40
2022-10-25T22:11:05.018Z,2.42
2022-10-25T22:14:10.688Z,2.57
2022-10-25T22:17:13.812Z,2.97
2022-10-25T22:20:16.745Z,2.17
2022-10-25T22:23:19.457Z,2.88
2022-10-25T22:26:23.474Z,2.63
2022-10-25T22:29:26.378Z,2.30
2022-10-25T22:32:29.052Z,2.70
2022-10-25T22:35:31.830Z,2.47
2022-10-25T22:38:34.932Z,2.38
2022-10-25T22:41:39.062Z,2.10
2022-10-25T22:44:41.835Z,2.60
2022-10-25T22:47:44.852Z,3.13
2022-10-25T22:50:51.595Z,2.58
2022-10-25T22:53:54.599Z,2.10
2022-10-25T22:56:58.646Z,1.92
2022-10-25T23:00:01.230Z,2.23
2022-10-25T23:03:04.191Z,2.43
2022-10-25T23:06:08.770Z,2.97
2022-10-25T23:09:11.854Z,3.20
2022-10-25T23:12:15.989Z,3.20
2022-10-25T23:15:18.725Z,2.40
2022-10-25T23:18:21.391Z,2.50
2022-10-25T23:21:24.964Z,3.28
2022-10-25T23:27:31.965Z,2.50
2022-10-25T23:30:36.012Z,2.17
2022-10-25T23:33:39.305Z,2.40
2022-10-25T23:36:42.035Z,3.05
2022-10-25T23:39:44.675Z,2.60
2022-10-25T23:42:48.651Z,2.53
2022-10-25T23:45:51.326Z,1.87
2022-10-25T23:48:54.020Z,2.63
2022-10-25T23:51:56.650Z,2.97
2022-10-25T23:54:59.302Z,3.53
2022-10-25T23:58:03.402Z,2.90
